createdAt,value
2023-10-26T00:00:25.851Z,0.80
2023-10-26T00:01:27.400Z,0.90
2023-10-26T00:02:28.978Z,1.00
2023-10-26T00:03:30.914Z,1.00
2023-10-26T00:04:32.634Z,0.90
2023-10-26T00:05:34.694Z,1.13
2023-10-26T00:06:36.408Z,1.13
2023-10-26T00:07:38.054Z,0.93
2023-10-26T00:08:39.602Z,1.17
2023-10-26T00:09:41.122Z,0.80
2023-10-26T00:10:42.984Z,1.25
2023-10-26T00:11:44.529Z,1.13
2023-10-26T00:12:46.229Z,0.90
2023-10-26T00:13:47.806Z,1.00
2023-10-26T00:14:49.363Z,0.90
2023-10-26T00:15:51.245Z,1.00
2023-10-26T00:16:52.916Z,0.80
2023-10-26T00:17:54.530Z,0.70
2023-10-26T00:18:56.235Z,0.75
2023-10-26T00:19:57.896Z,0.80
2023-10-26T00:21:00.490Z,0.75
2023-10-26T00:22:02.123Z,1.10
2023-10-26T00:23:05.864Z,0.70
2023-10-26T00:24:08.163Z,0.80
2023-10-26T00:25:09.736Z,0.70
2023-10-26T00:26:11.585Z,0.88
2023-10-26T00:27:13.976Z,0.73
2023-10-26T00:28:16.259Z,0.50
2023-10-26T00:29:17.871Z,0.93
2023-10-26T00:30:19.749Z,0.80
2023-10-26T00:31:21.430Z,0.80
2023-10-26T00:32:22.969Z,0.73
2023-10-26T00:33:24.572Z,0.68
2023-10-26T00:34:26.207Z,0.80
2023-10-26T00:35:28.160Z,0.68
2023-10-26T00:36:29.665Z,0.77
2023-10-26T00:37:31.708Z,0.80
2023-10-26T00:38:33.295Z,0.80
2023-10-26T00:39:35.438Z,0.70
2023-10-26T00:40:36.957Z,0.88
2023-10-26T00:41:39.001Z,0.95
2023-10-26T00:42:40.793Z,0.70
2023-10-26T00:43:42.340Z,0.93
2023-10-26T00:44:47.466Z,0.60
2023-10-26T00:45:51.996Z,0.70
2023-10-26T00:46:56.049Z,0.73
2023-10-26T00:47:57.834Z,0.47
2023-10-26T00:48:59.732Z,0.52
2023-10-26T00:50:01.455Z,0.98
2023-10-26T00:51:03.379Z,0.77
2023-10-26T00:52:05.339Z,0.60
2023-10-26T00:53:06.883Z,0.70
2023-10-26T00:54:09.050Z,0.68
2023-10-26T00:55:10.577Z,1.15
2023-10-26T00:56:12.760Z,0.73
2023-10-26T00:57:15.928Z,0.63
2023-10-26T00:58:17.483Z,0.52
2023-10-26T00:59:19.137Z,0.90
2023-10-26T01:00:20.730Z,0.50
2023-10-26T01:01:22.791Z,0.90
2023-10-26T01:02:24.366Z,0.60
2023-10-26T01:03:25.972Z,0.63
2023-10-26T01:04:27.517Z,0.57
2023-10-26T01:05:29.123Z,0.60
2023-10-26T01:06:31.092Z,0.57
2023-10-26T01:07:32.652Z,0.60
2023-10-26T01:08:34.174Z,0.65
2023-10-26T01:09:35.694Z,0.45
2023-10-26T01:10:37.235Z,0.70
2023-10-26T01:11:39.228Z,0.63
2023-10-26T01:12:40.915Z,0.52
2023-10-26T01:13:42.801Z,0.75
2023-10-26T01:14:44.818Z,0.52
2023-10-26T01:15:46.570Z,0.52
2023-10-26T01:16:48.474Z,0.50
2023-10-26T01:17:50.119Z,0.60
2023-10-26T01:18:51.818Z,0.60
2023-10-26T01:19:53.478Z,0.45
2023-10-26T01:20:55.697Z,0.60
2023-10-26T01:21:57.457Z,0.50
2023-10-26T01:22:59.065Z,0.60
2023-10-26T01:24:00.684Z,0.80
2023-10-26T01:25:02.267Z,0.80
2023-10-26T01:26:03.823Z,0.73
2023-10-26T01:27:06.071Z,0.52
2023-10-26T01:28:08.305Z,0.88
2023-10-26T01:29:09.867Z,0.70
2023-10-26T01:30:13.931Z,0.60
2023-10-26T01:31:18.779Z,0.70
2023-10-26T01:32:21.609Z,0.65
2023-10-26T01:33:23.217Z,0.73
2023-10-26T01:34:24.836Z,0.52
2023-10-26T01:35:26.462Z,0.40
2023-10-26T01:36:28.454Z,0.60
2023-10-26T01:37:29.978Z,0.63
2023-10-26T01:38:31.540Z,0.88
2023-10-26T01:39:33.834Z,0.70
2023-10-26T01:40:35.396Z,0.57
2023-10-26T01:41:37.383Z,0.68
2023-10-26T01:42:38.882Z,0.40
2023-10-26T01:43:40.387Z,0.73
2023-10-26T01:44:42.234Z,0.52
2023-10-26T01:45:43.989Z,0.50
2023-10-26T01:46:45.879Z,0.52
2023-10-26T01:47:47.436Z,0.60
2023-10-26T01:48:49.080Z,0.70
2023-10-26T01:49:50.673Z,0.50
2023-10-26T01:50:52.412Z,0.45
2023-10-26T01:51:54.280Z,0.65
2023-10-26T01:52:55.786Z,0.60
2023-10-26T01:53:57.342Z,0.75
2023-10-26T01:54:58.904Z,0.65
2023-10-26T01:56:00.416Z,0.45
2023-10-26T01:57:04.265Z,0.38
2023-10-26T01:58:05.878Z,0.63
2023-10-26T01:59:07.395Z,0.50
2023-10-26T02:00:10.129Z,0.55
2023-10-26T02:01:11.917Z,0.98
2023-10-26T02:02:13.949Z,0.63
2023-10-26T02:03:17.123Z,0.55
2023-10-26T02:04:18.790Z,0.60
2023-10-26T02:05:20.626Z,0.63
2023-10-26T02:06:22.576Z,0.63
2023-10-26T02:07:24.618Z,0.52
2023-10-26T02:08:26.237Z,0.47
2023-10-26T02:09:27.848Z,0.68
2023-10-26T02:10:32.059Z,0.80
2023-10-26T02:11:33.630Z,0.57
2023-10-26T02:12:35.585Z,0.57
2023-10-26T02:13:37.134Z,0.98
2023-10-26T02:14:39.108Z,0.60
2023-10-26T02:15:40.617Z,0.52
2023-10-26T02:16:42.178Z,0.45
2023-10-26T02:17:44.066Z,0.57
2023-10-26T02:18:46.425Z,0.73
2023-10-26T02:19:48.016Z,0.40
2023-10-26T02:20:49.670Z,0.60
2023-10-26T02:21:51.313Z,0.60
2023-10-26T02:22:52.871Z,0.55
2023-10-26T02:23:54.914Z,0.50
2023-10-26T02:24:56.476Z,0.63
2023-10-26T02:25:58.628Z,0.40
2023-10-26T02:27:00.275Z,0.93
2023-10-26T02:28:02.321Z,0.63
2023-10-26T02:29:03.874Z,0.75
2023-10-26T02:30:06.086Z,1.00
2023-10-26T02:31:07.718Z,0.63
2023-10-26T02:32:09.432Z,0.70
2023-10-26T02:33:11.429Z,0.63
2023-10-26T02:34:12.982Z,0.50
2023-10-26T02:35:14.539Z,0.50
2023-10-26T02:36:16.106Z,1.15
2023-10-26T02:37:20.751Z,0.63
2023-10-26T02:38:22.276Z,0.80
2023-10-26T02:39:23.828Z,0.47
2023-10-26T02:40:25.419Z,0.63
2023-10-26T02:41:26.954Z,0.50
2023-10-26T02:42:28.873Z,0.63
2023-10-26T02:43:30.429Z,0.63
2023-10-26T02:44:31.967Z,0.43
2023-10-26T02:45:33.578Z,0.40
2023-10-26T02:46:35.140Z,0.40
2023-10-26T02:47:39.182Z,0.70
2023-10-26T02:48:40.909Z,0.47
2023-10-26T02:49:42.475Z,0.57
2023-10-26T02:50:43.985Z,0.30
2023-10-26T02:51:45.495Z,0.52
2023-10-26T02:52:47.342Z,0.50
2023-10-26T02:53:48.943Z,0.52
2023-10-26T02:54:50.563Z,0.90
2023-10-26T02:55:52.100Z,0.52
2023-10-26T02:56:53.647Z,0.65
2023-10-26T02:57:55.583Z,0.50
2023-10-26T02:58:57.109Z,0.57
2023-10-26T02:59:58.670Z,0.50
2023-10-26T03:01:00.242Z,0.60
2023-10-26T03:02:01.863Z,0.60
2023-10-26T03:03:03.595Z,0.60
2023-10-26T03:04:05.519Z,0.60
2023-10-26T03:05:07.537Z,0.50
2023-10-26T03:06:10.064Z,0.57
2023-10-26T03:07:12.214Z,0.60
2023-10-26T03:08:14.176Z,0.50
2023-10-26T03:09:15.770Z,0.50
2023-10-26T03:10:17.490Z,0.50
2023-10-26T03:11:19.227Z,0.63
2023-10-26T03:12:20.960Z,0.50
2023-10-26T03:13:22.852Z,0.50
2023-10-26T03:14:24.400Z,0.45
2023-10-26T03:15:25.984Z,0.52
2023-10-26T03:16:27.708Z,0.63
2023-10-26T03:17:29.293Z,0.55
2023-10-26T03:18:31.177Z,0.75
2023-10-26T03:19:33.282Z,0.70
2023-10-26T03:20:34.866Z,0.50
2023-10-26T03:21:36.451Z,0.40
2023-10-26T03:22:37.947Z,0.50
2023-10-26T03:23:39.785Z,0.70
2023-10-26T03:24:41.292Z,0.50
2023-10-26T03:25:42.825Z,0.47
2023-10-26T03:26:44.420Z,0.50
2023-10-26T03:27:46.075Z,0.77
2023-10-26T03:28:50.172Z,0.43
2023-10-26T03:29:51.740Z,0.45
2023-10-26T03:30:53.290Z,0.50
2023-10-26T03:31:54.864Z,0.52
2023-10-26T03:32:56.610Z,0.63
2023-10-26T03:33:58.809Z,0.60
2023-10-26T03:35:00.878Z,0.45
2023-10-26T03:36:02.482Z,0.60
2023-10-26T03:37:04.223Z,0.52
2023-10-26T03:38:05.720Z,0.70
2023-10-26T03:39:07.566Z,0.43
2023-10-26T03:40:09.969Z,0.60
2023-10-26T03:41:11.516Z,0.63
2023-10-26T03:42:13.144Z,0.52
2023-10-26T03:43:14.775Z,0.80
2023-10-26T03:44:16.279Z,0.60
2023-10-26T03:45:18.106Z,0.70
2023-10-26T03:46:19.809Z,0.60
2023-10-26T03:47:21.392Z,0.70
2023-10-26T03:48:23.398Z,0.70
2023-10-26T03:49:24.956Z,0.60
2023-10-26T03:50:26.490Z,0.50
2023-10-26T03:51:28.353Z,0.55
2023-10-26T03:52:29.919Z,0.50
2023-10-26T03:53:31.986Z,0.32
2023-10-26T03:54:33.741Z,0.73
2023-10-26T03:55:35.379Z,0.60
2023-10-26T03:56:36.889Z,0.93
2023-10-26T03:57:38.761Z,0.73
2023-10-26T03:58:40.393Z,0.80
2023-10-26T03:59:41.910Z,0.75
2023-10-26T04:00:43.476Z,0.80
2023-10-26T04:01:45.018Z,0.70
2023-10-26T04:02:46.610Z,0.57
2023-10-26T04:03:48.488Z,0.75
2023-10-26T04:04:51.335Z,0.73
2023-10-26T04:05:53.531Z,0.60
2023-10-26T04:06:55.116Z,0.50
2023-10-26T04:07:57.694Z,0.65
2023-10-26T04:09:00.002Z,0.90
2023-10-26T04:10:02.773Z,0.80
2023-10-26T04:11:04.452Z,0.63
2023-10-26T04:12:06.893Z,0.68
2023-10-26T04:13:08.949Z,0.90
2023-10-26T04:14:10.829Z,0.60
2023-10-26T04:15:12.389Z,0.60
2023-10-26T04:16:14.635Z,0.70
2023-10-26T04:17:16.825Z,0.70
2023-10-26T04:18:18.648Z,0.68
2023-10-26T04:19:20.828Z,0.52
2023-10-26T04:20:22.596Z,0.70
2023-10-26T04:21:24.185Z,0.70
2023-10-26T04:22:27.372Z,0.68
2023-10-26T04:23:29.401Z,0.52
2023-10-26T04:24:30.988Z,0.50
2023-10-26T04:25:52.681Z,0.65
2023-10-26T04:26:54.211Z,0.63
2023-10-26T04:27:59.181Z,0.50
2023-10-26T04:29:00.733Z,0.50
2023-10-26T04:30:02.461Z,0.60
2023-10-26T04:31:05.331Z,0.52
2023-10-26T04:32:08.425Z,0.75
2023-10-26T04:33:10.005Z,0.52
2023-10-26T04:34:12.295Z,0.65
2023-10-26T04:35:13.831Z,0.73
2023-10-26T04:36:15.982Z,0.50
2023-10-26T04:37:17.558Z,0.50
2023-10-26T04:38:19.595Z,0.60
2023-10-26T04:39:23.358Z,0.60
2023-10-26T04:40:25.435Z,0.70
2023-10-26T04:41:27.336Z,0.73
2023-10-26T04:42:28.874Z,0.77
2023-10-26T04:43:30.940Z,1.00
2023-10-26T04:44:32.452Z,0.63
2023-10-26T04:45:34.678Z,0.65
2023-10-26T04:46:36.202Z,0.60
2023-10-26T04:47:38.267Z,0.82
2023-10-26T04:48:41.076Z,0.55
2023-10-26T04:49:42.744Z,0.73
2023-10-26T04:50:44.244Z,0.73
2023-10-26T04:51:45.788Z,0.60
2023-10-26T04:52:49.066Z,0.80
2023-10-26T04:53:53.648Z,1.05
2023-10-26T04:54:55.438Z,0.90
2023-10-26T04:55:57.049Z,0.88
2023-10-26T04:56:58.625Z,0.68
2023-10-26T04:58:01.314Z,0.73
2023-10-26T04:59:03.177Z,0.65
2023-10-26T05:00:10.116Z,0.90
2023-10-26T05:01:12.221Z,0.90
2023-10-26T05:02:13.902Z,0.80
2023-10-26T05:03:15.594Z,0.82
2023-10-26T05:04:17.903Z,1.05
2023-10-26T05:05:19.663Z,1.00
2023-10-26T05:06:21.362Z,0.80
2023-10-26T05:07:23.058Z,0.98
2023-10-26T05:08:25.165Z,0.82
2023-10-26T05:09:26.731Z,0.85
2023-10-26T05:10:28.821Z,0.93
2023-10-26T05:11:30.387Z,1.10
2023-10-26T05:12:32.384Z,0.93
2023-10-26T05:13:34.420Z,1.02
2023-10-26T05:14:35.934Z,1.15
2023-10-26T05:15:37.613Z,0.95
2023-10-26T05:16:39.250Z,0.98
2023-10-26T05:17:40.939Z,1.13
2023-10-26T05:18:42.535Z,1.10
2023-10-26T05:19:44.119Z,0.93
2023-10-26T05:20:51.614Z,1.10
2023-10-26T05:21:53.183Z,3.50
2023-10-26T05:22:54.853Z,4.25
2023-10-26T05:23:56.419Z,7.40
2023-10-26T05:24:59.643Z,2.95
2023-10-26T05:26:01.255Z,2.03
2023-10-26T05:27:02.883Z,1.40
2023-10-26T05:28:04.778Z,1.23
2023-10-26T05:29:06.316Z,1.13
2023-10-26T05:30:09.070Z,1.27
2023-10-26T05:31:10.676Z,1.73
2023-10-26T05:32:12.209Z,1.60
2023-10-26T05:33:13.775Z,1.67
2023-10-26T05:34:16.112Z,1.50
2023-10-26T05:35:19.790Z,1.48
2023-10-26T05:36:21.374Z,1.58
2023-10-26T05:37:23.421Z,2.08
2023-10-26T05:38:24.983Z,1.77
2023-10-26T05:39:26.574Z,1.65
2023-10-26T05:40:28.893Z,2.13
2023-10-26T05:41:30.596Z,1.52
2023-10-26T05:42:32.181Z,2.20
2023-10-26T05:43:33.737Z,2.20
2023-10-26T05:44:35.269Z,2.03
2023-10-26T05:45:41.018Z,2.17
2023-10-26T05:46:42.777Z,2.03
2023-10-26T05:47:44.489Z,1.88
2023-10-26T05:48:46.123Z,2.35
2023-10-26T05:49:47.690Z,2.03
2023-10-26T05:50:49.734Z,2.20
2023-10-26T05:51:51.313Z,2.25
2023-10-26T05:52:52.836Z,2.00
2023-10-26T05:53:54.847Z,1.98
2023-10-26T05:54:56.374Z,2.55
2023-10-26T05:55:58.691Z,2.03
2023-10-26T05:57:02.003Z,2.25
2023-10-26T05:58:04.783Z,2.50
2023-10-26T05:59:06.492Z,2.30
2023-10-26T06:00:10.860Z,2.33
2023-10-26T06:01:13.078Z,2.10
2023-10-26T06:02:14.635Z,2.63
2023-10-26T06:03:16.292Z,2.15
2023-10-26T06:04:18.145Z,2.10
2023-10-26T06:05:19.718Z,2.47
2023-10-26T06:06:21.399Z,2.50
2023-10-26T06:07:23.620Z,2.45
2023-10-26T06:08:25.683Z,2.40
2023-10-26T06:09:28.029Z,2.45
2023-10-26T06:10:29.649Z,2.20
2023-10-26T06:11:31.361Z,2.45
2023-10-26T06:12:32.926Z,2.33
2023-10-26T06:13:34.493Z,2.70
2023-10-26T06:14:36.826Z,2.58
2023-10-26T06:15:38.511Z,2.83
2023-10-26T06:16:40.105Z,2.40
2023-10-26T06:17:41.652Z,2.92
2023-10-26T06:18:43.942Z,2.80
2023-10-26T06:19:45.545Z,2.53
2023-10-26T06:21:02.658Z,2.72
2023-10-26T06:22:04.793Z,2.40
2023-10-26T06:23:07.074Z,3.20
2023-10-26T06:24:09.009Z,3.10
2023-10-26T06:25:11.895Z,2.72
2023-10-26T06:26:13.462Z,3.28
2023-10-26T06:27:15.053Z,3.08
2023-10-26T06:28:18.392Z,2.97
2023-10-26T06:29:20.491Z,3.05
2023-10-26T06:30:22.723Z,3.28
2023-10-26T06:31:24.431Z,3.00
2023-10-26T06:32:26.050Z,2.72
2023-10-26T06:33:27.973Z,3.42
2023-10-26T06:34:30.409Z,3.10
2023-10-26T06:35:32.038Z,3.03
2023-10-26T06:36:34.953Z,3.45
2023-10-26T06:38:39.535Z,3.22
2023-10-26T06:40:45.355Z,2.85
2023-10-26T06:41:46.940Z,3.10
2023-10-26T06:42:48.985Z,3.35
2023-10-26T06:43:50.496Z,3.50
2023-10-26T06:44:52.533Z,3.13
2023-10-26T06:45:54.104Z,3.38
2023-10-26T06:46:56.411Z,3.45
2023-10-26T06:47:58.007Z,7.38
2023-10-26T06:48:59.715Z,10.10
2023-10-26T06:50:01.601Z,13.65
2023-10-26T06:51:04.127Z,18.73
2023-10-26T06:52:06.459Z,13.02
2023-10-26T06:53:08.069Z,7.35
2023-10-26T06:54:11.109Z,5.43
2023-10-26T06:56:21.450Z,4.05
2023-10-26T06:57:23.094Z,3.60
2023-10-26T06:58:24.692Z,3.65
2023-10-26T06:59:26.263Z,3.53
2023-10-26T07:00:28.235Z,3.78
2023-10-26T07:01:29.884Z,3.60
2023-10-26T07:02:51.506Z,3.55
2023-10-26T07:03:53.324Z,3.47
2023-10-26T07:04:55.376Z,3.65
2023-10-26T07:05:57.447Z,3.65
2023-10-26T07:06:59.006Z,3.58
2023-10-26T07:08:00.929Z,3.15
2023-10-26T07:09:03.440Z,3.25
2023-10-26T07:10:08.836Z,2.83
2023-10-26T07:11:10.965Z,2.83
2023-10-26T07:12:12.587Z,2.50
2023-10-26T07:13:14.204Z,2.70
2023-10-26T07:14:16.215Z,2.58
2023-10-26T07:15:17.951Z,2.55
2023-10-26T07:16:19.719Z,2.40
2023-10-26T07:17:22.256Z,2.10
2023-10-26T07:18:23.865Z,2.40
2023-10-26T07:19:25.419Z,2.13
2023-10-26T07:20:26.964Z,1.88
2023-10-26T07:21:29.045Z,2.10
2023-10-26T07:22:33.339Z,1.63
2023-10-26T07:23:35.217Z,1.73
2023-10-26T07:24:37.635Z,2.05
2023-10-26T07:25:39.352Z,1.92
2023-10-26T07:26:40.875Z,2.08
2023-10-26T07:27:42.475Z,1.75
2023-10-26T07:28:44.123Z,1.83
2023-10-26T07:29:47.041Z,1.88
2023-10-26T07:31:53.906Z,1.83
2023-10-26T07:32:56.107Z,1.80
2023-10-26T07:33:57.879Z,2.00
2023-10-26T07:35:02.366Z,1.70
2023-10-26T07:36:04.489Z,2.03
2023-10-26T07:37:09.000Z,1.70
2023-10-26T07:38:35.265Z,1.63
2023-10-26T07:39:43.628Z,1.83
2023-10-26T07:40:50.434Z,1.83
2023-10-26T07:42:07.732Z,1.77
2023-10-26T07:43:11.206Z,1.83
2023-10-26T07:44:13.263Z,1.80
2023-10-26T07:45:15.472Z,1.80
2023-10-26T07:46:17.075Z,1.70
2023-10-26T07:47:18.651Z,1.77
2023-10-26T07:48:20.284Z,1.88
2023-10-26T07:49:21.816Z,1.58
2023-10-26T07:50:24.441Z,1.50
2023-10-26T07:51:25.975Z,1.80
2023-10-26T07:52:27.571Z,1.60
2023-10-26T07:53:31.885Z,1.55
2023-10-26T07:54:33.996Z,1.30
2023-10-26T07:55:36.059Z,2.35
2023-10-26T07:56:39.285Z,4.55
2023-10-26T07:57:43.586Z,3.97
2023-10-26T07:58:45.725Z,5.22
2023-10-26T07:59:47.259Z,4.35
2023-10-26T08:00:48.773Z,2.95
2023-10-26T08:01:50.405Z,2.20
2023-10-26T08:02:52.886Z,1.83
2023-10-26T08:03:54.541Z,2.00
2023-10-26T08:04:56.684Z,1.70
2023-10-26T08:05:58.935Z,1.90
2023-10-26T08:07:01.255Z,1.85
2023-10-26T08:08:04.095Z,2.17
2023-10-26T08:10:08.882Z,3.45
2023-10-26T08:11:11.432Z,6.32
2023-10-26T08:12:14.193Z,3.88
2023-10-26T08:13:16.800Z,2.50
2023-10-26T08:14:36.176Z,3.00
2023-10-26T08:16:10.928Z,2.25
2023-10-26T08:17:05.052Z,2.15
2023-10-26T08:18:07.025Z,2.67
2023-10-26T08:19:09.386Z,2.13
2023-10-26T08:20:12.006Z,1.98
2023-10-26T08:21:14.835Z,3.55
2023-10-26T08:22:16.376Z,2.78
2023-10-26T08:23:18.758Z,2.05
2023-10-26T08:24:20.300Z,1.70
2023-10-26T08:25:24.860Z,1.95
2023-10-26T08:26:27.515Z,1.70
2023-10-26T08:27:29.812Z,2.03
2023-10-26T08:28:31.360Z,1.95
2023-10-26T08:29:32.953Z,1.83
2023-10-26T08:30:34.566Z,1.90
2023-10-26T08:31:36.511Z,1.70
2023-10-26T08:32:38.502Z,1.88
2023-10-26T08:33:40.701Z,1.65
2023-10-26T08:34:42.584Z,3.97
2023-10-26T08:35:51.380Z,3.83
2023-10-26T08:37:11.719Z,2.72
2023-10-26T08:38:14.344Z,2.22
2023-10-26T08:39:16.368Z,1.80
2023-10-26T08:40:18.133Z,1.75
2023-10-26T08:41:19.683Z,1.95
2023-10-26T08:42:21.219Z,1.73
2023-10-26T08:43:23.421Z,1.90
2023-10-26T08:44:26.411Z,1.88
2023-10-26T08:46:30.622Z,1.63
2023-10-26T08:47:32.369Z,1.83
2023-10-26T08:48:34.973Z,1.85
2023-10-26T08:49:38.080Z,1.98
2023-10-26T08:50:39.782Z,1.80
2023-10-26T08:51:41.366Z,1.65
2023-10-26T08:52:43.716Z,1.75
2023-10-26T08:53:45.265Z,1.80
2023-10-26T08:54:48.816Z,1.48
2023-10-26T08:55:53.180Z,1.15
2023-10-26T08:56:54.988Z,1.50
2023-10-26T08:58:00.300Z,1.63
2023-10-26T08:59:04.651Z,1.80
2023-10-26T09:00:07.396Z,1.83
2023-10-26T09:01:08.923Z,1.42
2023-10-26T09:02:10.778Z,1.50
2023-10-26T09:03:13.054Z,1.75
2023-10-26T09:04:16.596Z,1.42
2023-10-26T09:05:18.746Z,1.90
2023-10-26T09:06:20.991Z,1.60
2023-10-26T09:07:28.529Z,1.70
2023-10-26T09:08:31.538Z,9.95
2023-10-26T09:09:44.497Z,7.90
2023-10-26T09:10:46.151Z,2.15
2023-10-26T09:11:49.263Z,1.63
2023-10-26T09:13:04.495Z,1.65
2023-10-26T09:14:19.225Z,1.60
2023-10-26T09:15:20.846Z,1.50
2023-10-26T09:16:35.419Z,1.30
2023-10-26T09:17:37.178Z,1.45
2023-10-26T09:18:39.869Z,1.10
2023-10-26T09:19:42.748Z,6.72
2023-10-26T09:21:54.104Z,3.92
2023-10-26T09:22:55.702Z,1.30
2023-10-26T09:23:57.544Z,1.23
2023-10-26T09:25:07.393Z,1.13
2023-10-26T09:26:09.757Z,1.55
2023-10-26T09:27:20.009Z,1.40
2023-10-26T09:28:21.526Z,1.00
2023-10-26T09:29:39.149Z,1.05
2023-10-26T09:30:40.810Z,1.30
2023-10-26T09:31:53.900Z,0.90
2023-10-26T09:32:57.679Z,1.20
2023-10-26T09:34:10.652Z,0.90
2023-10-26T09:35:15.798Z,0.95
2023-10-26T09:36:18.810Z,1.10
2023-10-26T09:37:20.899Z,1.33
2023-10-26T09:38:36.288Z,1.00
2023-10-26T09:39:38.812Z,0.98
2023-10-26T09:40:41.404Z,1.13
2023-10-26T09:41:43.030Z,0.93
2023-10-26T09:42:44.555Z,1.17
2023-10-26T09:43:46.135Z,1.00
2023-10-26T09:44:47.980Z,1.20
2023-10-26T09:45:50.035Z,1.45
2023-10-26T09:46:51.605Z,1.25
2023-10-26T09:47:53.322Z,1.20
2023-10-26T09:48:54.942Z,1.02
2023-10-26T09:49:57.028Z,1.13
2023-10-26T09:51:02.186Z,0.90
2023-10-26T09:52:04.273Z,0.93
2023-10-26T09:53:06.329Z,1.25
2023-10-26T09:54:09.687Z,1.20
2023-10-26T09:55:12.233Z,1.15
2023-10-26T09:56:18.254Z,1.00
2023-10-26T09:57:28.971Z,1.00
2023-10-26T09:58:34.884Z,1.10
2023-10-26T09:59:37.412Z,1.20
2023-10-26T10:00:38.989Z,1.02
2023-10-26T10:01:43.385Z,0.82
2023-10-26T10:02:45.497Z,1.50
2023-10-26T10:03:47.560Z,1.65
2023-10-26T10:04:50.051Z,0.93
2023-10-26T10:05:51.584Z,1.10
2023-10-26T10:06:54.522Z,1.15
2023-10-26T10:07:56.270Z,0.90
2023-10-26T10:09:01.682Z,0.98
2023-10-26T10:10:07.454Z,1.00
2023-10-26T10:11:18.510Z,0.90
2023-10-26T10:12:20.695Z,0.90
2023-10-26T10:13:38.031Z,0.75
2023-10-26T10:14:49.216Z,0.80
2023-10-26T10:15:51.376Z,0.82
2023-10-26T10:16:53.268Z,0.90
2023-10-26T10:17:54.830Z,0.88
2023-10-26T10:19:18.467Z,0.80
2023-10-26T10:20:20.436Z,0.93
2023-10-26T10:21:34.692Z,0.88
2023-10-26T10:22:39.211Z,0.82
2023-10-26T10:23:41.123Z,0.73
2023-10-26T10:24:44.266Z,0.98
2023-10-26T10:25:52.667Z,0.80
2023-10-26T10:27:13.989Z,0.70
2023-10-26T10:28:15.596Z,0.60
2023-10-26T10:29:20.461Z,0.73
2023-10-26T10:30:22.726Z,1.02
2023-10-26T10:31:25.528Z,0.73
2023-10-26T10:32:45.413Z,1.13
2023-10-26T10:33:47.730Z,0.70
2023-10-26T10:34:49.440Z,0.90
2023-10-26T10:35:58.896Z,0.82
2023-10-26T10:37:13.456Z,1.05
2023-10-26T10:38:15.202Z,0.90
2023-10-26T10:39:25.722Z,0.80
2023-10-26T10:40:27.846Z,0.77
2023-10-26T10:41:29.771Z,0.70
2023-10-26T10:42:31.338Z,0.70
2023-10-26T10:43:47.516Z,0.65
2023-10-26T10:44:49.331Z,0.70
2023-10-26T10:45:50.889Z,0.63
2023-10-26T10:46:52.516Z,0.82
2023-10-26T10:47:54.217Z,0.90
2023-10-26T10:49:07.466Z,0.60
2023-10-26T10:50:17.843Z,0.57
2023-10-26T10:51:19.972Z,0.55
2023-10-26T10:52:21.513Z,0.60
2023-10-26T10:53:23.127Z,0.65
2023-10-26T10:54:36.087Z,0.70
2023-10-26T10:55:47.557Z,0.75
2023-10-26T10:58:00.963Z,0.70
2023-10-26T10:59:03.101Z,0.55
2023-10-26T11:00:05.062Z,0.90
2023-10-26T11:01:06.698Z,0.88
2023-10-26T11:02:14.500Z,0.80
2023-10-26T11:03:25.072Z,0.98
2023-10-26T11:04:27.565Z,0.65
2023-10-26T11:05:41.710Z,0.82
2023-10-26T11:06:47.378Z,1.02
2023-10-26T11:07:49.276Z,1.00
2023-10-26T11:08:50.802Z,0.82
2023-10-26T11:09:56.804Z,0.73
2023-10-26T11:10:59.309Z,0.70
2023-10-26T11:12:11.169Z,1.05
2023-10-26T11:13:19.597Z,0.85
2023-10-26T11:14:21.810Z,0.70
2023-10-26T11:15:32.279Z,0.88
2023-10-26T11:16:34.009Z,0.45
2023-10-26T11:17:35.703Z,0.73
2023-10-26T11:18:37.851Z,0.82
2023-10-26T11:19:39.388Z,0.75
2023-10-26T11:20:46.237Z,0.63
2023-10-26T11:21:47.867Z,1.20
2023-10-26T11:22:49.897Z,0.60
2023-10-26T11:23:52.217Z,0.93
2023-10-26T11:24:53.822Z,0.60
2023-10-26T11:25:55.371Z,0.80
2023-10-26T11:27:17.508Z,0.60
2023-10-26T11:28:33.718Z,0.70
2023-10-26T11:29:35.304Z,0.70
2023-10-26T11:30:52.970Z,0.70
2023-10-26T11:31:55.309Z,0.90
2023-10-26T11:32:57.408Z,0.52
2023-10-26T11:34:04.611Z,0.60
2023-10-26T11:35:07.829Z,0.68
2023-10-26T11:36:13.571Z,0.70
2023-10-26T11:37:15.126Z,0.65
2023-10-26T11:38:17.134Z,0.63
2023-10-26T11:39:18.663Z,0.73
2023-10-26T11:40:23.806Z,0.85
2023-10-26T11:41:30.845Z,1.45
2023-10-26T11:42:49.891Z,0.82
2023-10-26T11:43:51.617Z,0.82
2023-10-26T11:44:59.001Z,0.93
2023-10-26T11:46:00.798Z,0.63
2023-10-26T11:47:02.959Z,0.52
2023-10-26T11:48:04.733Z,0.55
2023-10-26T11:49:07.009Z,0.73
2023-10-26T11:50:18.355Z,0.70
2023-10-26T11:51:20.321Z,0.70
2023-10-26T11:52:23.745Z,0.77
2023-10-26T11:53:25.468Z,0.75
2023-10-26T11:54:27.494Z,0.70
2023-10-26T11:55:31.119Z,0.50
2023-10-26T11:56:32.621Z,0.60
2023-10-26T11:57:34.230Z,0.63
2023-10-26T11:58:36.918Z,0.73
2023-10-26T11:59:38.453Z,0.65
2023-10-26T12:00:40.486Z,0.88
2023-10-26T12:01:42.123Z,0.65
2023-10-26T12:02:44.255Z,0.82
2023-10-26T12:03:46.646Z,0.90
2023-10-26T12:04:50.971Z,0.73
2023-10-26T12:05:52.544Z,0.80
2023-10-26T12:06:56.409Z,0.70
2023-10-26T12:07:58.030Z,0.93
2023-10-26T12:09:00.255Z,0.60
2023-10-26T12:10:02.938Z,0.75
2023-10-26T12:11:05.421Z,0.80
2023-10-26T12:12:07.264Z,0.65
2023-10-26T12:13:08.896Z,0.98
2023-10-26T12:14:10.728Z,0.70
2023-10-26T12:15:12.300Z,0.90
2023-10-26T12:16:13.971Z,0.82
2023-10-26T12:17:15.744Z,1.25
2023-10-26T12:18:17.332Z,0.88
2023-10-26T12:19:19.336Z,1.45
2023-10-26T12:20:21.001Z,1.05
2023-10-26T12:21:22.557Z,0.80
2023-10-26T12:22:24.136Z,0.93
2023-10-26T12:23:25.725Z,0.82
2023-10-26T12:24:27.794Z,0.90
2023-10-26T12:25:29.316Z,0.90
2023-10-26T12:26:31.289Z,0.90
2023-10-26T12:28:10.367Z,0.80
2023-10-26T12:28:55.148Z,0.93
2023-10-26T12:29:57.698Z,1.25
2023-10-26T12:31:02.182Z,0.85
2023-10-26T12:32:03.818Z,0.80
2023-10-26T12:33:05.887Z,1.10
2023-10-26T12:34:07.526Z,1.02
2023-10-26T12:35:09.776Z,1.15
2023-10-26T12:36:11.310Z,0.93
2023-10-26T12:37:12.838Z,1.20
2023-10-26T12:38:14.480Z,0.98
2023-10-26T12:39:16.553Z,1.13
2023-10-26T12:40:19.430Z,1.38
2023-10-26T12:41:21.080Z,0.95
2023-10-26T12:42:24.777Z,1.20
2023-10-26T12:43:26.828Z,0.93
2023-10-26T12:44:28.455Z,0.90
2023-10-26T12:45:30.257Z,1.02
2023-10-26T12:46:31.885Z,0.70
2023-10-26T12:47:33.461Z,0.98
2023-10-26T12:48:35.578Z,1.00
2023-10-26T12:49:37.701Z,1.00
2023-10-26T12:50:39.274Z,0.95
2023-10-26T12:51:40.952Z,0.90
2023-10-26T12:52:42.475Z,0.98
2023-10-26T12:53:44.475Z,1.20
2023-10-26T12:54:46.055Z,1.20
2023-10-26T12:55:47.629Z,0.80
2023-10-26T12:56:49.204Z,0.98
2023-10-26T12:57:52.580Z,0.90
2023-10-26T12:58:54.160Z,1.35
2023-10-26T12:59:56.225Z,1.05
2023-10-26T13:00:57.871Z,1.10
2023-10-26T13:02:00.197Z,1.08
2023-10-26T13:03:02.306Z,1.15
2023-10-26T13:04:05.460Z,1.13
2023-10-26T13:05:07.407Z,1.20
2023-10-26T13:06:08.945Z,1.58
2023-10-26T13:07:10.647Z,1.13
2023-10-26T13:08:12.928Z,1.13
2023-10-26T13:09:14.478Z,1.30
2023-10-26T13:10:16.063Z,1.13
2023-10-26T13:11:17.744Z,1.25
2023-10-26T13:12:19.302Z,9.75
2023-10-26T13:13:21.406Z,1.95
2023-10-26T13:14:22.954Z,1.40
2023-10-26T13:15:24.573Z,1.38
2023-10-26T13:16:26.609Z,2.63
2023-10-26T13:17:28.190Z,2.00
2023-10-26T13:18:30.286Z,1.52
2023-10-26T13:19:31.897Z,1.55
2023-10-26T13:20:33.992Z,1.27
2023-10-26T13:21:35.577Z,1.55
2023-10-26T13:22:37.158Z,1.42
2023-10-26T13:23:39.233Z,1.20
2023-10-26T13:24:41.422Z,1.45
2023-10-26T13:25:43.105Z,1.48
2023-10-26T13:26:44.621Z,1.52
2023-10-26T13:27:46.196Z,1.50
2023-10-26T13:28:47.736Z,1.27
2023-10-26T13:29:49.805Z,1.30
2023-10-26T13:30:51.804Z,1.48
2023-10-26T13:31:53.416Z,1.50
2023-10-26T13:32:55.559Z,1.52
2023-10-26T13:33:57.159Z,1.50
2023-10-26T13:34:58.720Z,1.42
2023-10-26T13:36:00.948Z,1.50
2023-10-26T13:37:02.568Z,1.38
2023-10-26T13:38:04.076Z,1.70
2023-10-26T13:39:06.129Z,1.42
2023-10-26T13:40:08.479Z,1.45
2023-10-26T13:41:09.996Z,1.65
2023-10-26T13:42:12.481Z,3.67
2023-10-26T13:43:16.812Z,2.53
2023-10-26T13:44:18.343Z,2.20
2023-10-26T13:45:21.209Z,2.30
2023-10-26T13:46:24.168Z,1.60
2023-10-26T13:47:25.752Z,1.48
2023-10-26T13:48:27.275Z,1.60
2023-10-26T13:49:28.826Z,1.63
2023-10-26T13:50:31.087Z,1.63
2023-10-26T13:51:33.164Z,1.80
2023-10-26T13:52:34.744Z,1.33
2023-10-26T13:53:36.237Z,1.33
2023-10-26T13:54:37.978Z,1.38
2023-10-26T13:55:39.539Z,1.52
2023-10-26T13:56:41.599Z,1.67
2023-10-26T13:57:43.146Z,1.33
2023-10-26T13:58:44.748Z,1.75
2023-10-26T13:59:46.295Z,1.98
2023-10-26T14:00:47.843Z,1.35
2023-10-26T14:01:49.510Z,1.73
2023-10-26T14:02:51.088Z,1.52
2023-10-26T14:03:53.155Z,1.55
2023-10-26T14:04:54.718Z,1.52
2023-10-26T14:05:57.314Z,1.70